Portada
METAR-TAF:

METAR-TAF

Aeroports :

Mae Sot, Tailàndia

latitud: 16-40N, longitud: 098-33E, altitud: 196 m

Observació

L'informe es va fer fa 1 hora i 0 minuts, a les 23:00 UTC
Vent calma
Temperatura 22°C
Humitat 88%
Pressió 1010 hPa
Visibilitat: 6000 m

METAR: VTPM 012300Z 00000KT 6000 NSC 22/20 Q1010 NOSIG

Hora: 07:00 (00:00 UTC)

Pronòstic

L'informe es va fer fa 1 hora i 0 minuts, a les 23:00 UTC
Pronòstic vàlid del 02 a les 00 UTC al 02 a les 24 UTC
Vent 6 kt del Oest
Visibilitat: 8000 m
Escasses núvols a una alçada de 2500 ft

TAF: VTPM 012300Z 0200/0224 26006KT 8000 FEW025

Observacions i pronòstics meteorològics de més de 4000 aeroports (METAR i TAF).

Les estacions disponibles són els punts grocs i vermells al mapa.

Posi el ratolí al punt desitjat per veure el nom de l'estació.

Feu clic per veure les observacions i els pronòstics meteorològics.

Per canviar el mapa: feu clic els botons verds amb una creu de color negre per apropar; al botó verd amb un guió per allunyar la imatge; o en les fletxes verdes per a mapes adjacents.


METAR-TAF: